sensor_id;sensor_type;location;lat;lon;timestamp;P1;durP1;ratioP1;P2;durP2;ratioP2
39362;SDS011;25088;43.238;23.110;2022-10-18T00:01:02;0.30;;;0.30;;
39362;SDS011;25088;43.238;23.110;2022-10-18T00:03:29;0.20;;;0.20;;
39362;SDS011;25088;43.238;23.110;2022-10-18T00:05:55;0.20;;;0.20;;
39362;SDS011;25088;43.238;23.110;2022-10-18T00:08:21;0.20;;;0.20;;
39362;SDS011;25088;43.238;23.110;2022-10-18T00:10:47;0.20;;;0.20;;
39362;SDS011;25088;43.238;23.110;2022-10-18T00:13:12;0.20;;;0.20;;
39362;SDS011;25088;43.238;23.110;2022-10-18T00:15:38;0.20;;;0.20;;
39362;SDS011;25088;43.238;23.110;2022-10-18T00:18:04;0.20;;;0.20;;
39362;SDS011;25088;43.238;23.110;2022-10-18T00:20:29;0.20;;;0.20;;
39362;SDS011;25088;43.238;23.110;2022-10-18T00:22:55;0.20;;;0.20;;
39362;SDS011;25088;43.238;23.110;2022-10-18T00:25:21;0.20;;;0.20;;
39362;SDS011;25088;43.238;23.110;2022-10-18T00:27:46;0.20;;;0.20;;
39362;SDS011;25088;43.238;23.110;2022-10-18T00:30:12;0.20;;;0.20;;
39362;SDS011;25088;43.238;23.110;2022-10-18T00:32:38;0.20;;;0.20;;
39362;SDS011;25088;43.238;23.110;2022-10-18T00:35:05;0.20;;;0.20;;
39362;SDS011;25088;43.238;23.110;2022-10-18T00:37:32;0.20;;;0.20;;
39362;SDS011;25088;43.238;23.110;2022-10-18T00:39:58;0.20;;;0.20;;
39362;SDS011;25088;43.238;23.110;2022-10-18T00:42:26;0.30;;;0.30;;
39362;SDS011;25088;43.238;23.110;2022-10-18T00:44:59;0.22;;;0.22;;
39362;SDS011;25088;43.238;23.110;2022-10-18T00:47:28;0.20;;;0.20;;
39362;SDS011;25088;43.238;23.110;2022-10-18T00:49:54;0.28;;;0.28;;
39362;SDS011;25088;43.238;23.110;2022-10-18T00:52:23;0.30;;;0.30;;
39362;SDS011;25088;43.238;23.110;2022-10-18T00:54:52;0.30;;;0.30;;
39362;SDS011;25088;43.238;23.110;2022-10-18T00:57:19;0.20;;;0.20;;
39362;SDS011;25088;43.238;23.110;2022-10-18T00:59:45;0.20;;;0.20;;
39362;SDS011;25088;43.238;23.110;2022-10-18T01:02:11;0.20;;;0.20;;
39362;SDS011;25088;43.238;23.110;2022-10-18T01:04:39;0.20;;;0.20;;
39362;SDS011;25088;43.238;23.110;2022-10-18T01:15:59;0.20;;;0.20;;
39362;SDS011;25088;43.238;23.110;2022-10-18T01:18:28;0.20;;;0.20;;
39362;SDS011;25088;43.238;23.110;2022-10-18T01:32:04;0.30;;;0.30;;
39362;SDS011;25088;43.238;23.110;2022-10-18T01:34:36;0.30;;;0.30;;
39362;SDS011;25088;43.238;23.110;2022-10-18T01:37:05;0.30;;;0.30;;
39362;SDS011;25088;43.238;23.110;2022-10-18T01:39:35;0.30;;;0.30;;
39362;SDS011;25088;43.238;23.110;2022-10-18T01:42:04;0.20;;;0.20;;
39362;SDS011;25088;43.238;23.110;2022-10-18T01:44:33;0.30;;;0.30;;
39362;SDS011;25088;43.238;23.110;2022-10-18T01:47:01;0.20;;;0.20;;
39362;SDS011;25088;43.238;23.110;2022-10-18T01:49:30;0.20;;;0.20;;
39362;SDS011;25088;43.238;23.110;2022-10-18T01:51:57;0.20;;;0.20;;
39362;SDS011;25088;43.238;23.110;2022-10-18T01:54:28;0.20;;;0.20;;
39362;SDS011;25088;43.238;23.110;2022-10-18T01:59:51;0.30;;;0.30;;
39362;SDS011;25088;43.238;23.110;2022-10-18T02:05:11;0.25;;;0.25;;
39362;SDS011;25088;43.238;23.110;2022-10-18T02:08:03;0.20;;;0.20;;
39362;SDS011;25088;43.238;23.110;2022-10-18T02:10:44;0.30;;;0.30;;
39362;SDS011;25088;43.238;23.110;2022-10-18T02:13:14;0.20;;;0.20;;
39362;SDS011;25088;43.238;23.110;2022-10-18T02:15:43;0.30;;;0.30;;
39362;SDS011;25088;43.238;23.110;2022-10-18T02:18:18;0.30;;;0.30;;
39362;SDS011;25088;43.238;23.110;2022-10-18T02:20:48;0.30;;;0.30;;
39362;SDS011;25088;43.238;23.110;2022-10-18T02:23:15;0.28;;;0.28;;
39362;SDS011;25088;43.238;23.110;2022-10-18T02:25:46;0.30;;;0.30;;
39362;SDS011;25088;43.238;23.110;2022-10-18T02:28:11;0.30;;;0.30;;
39362;SDS011;25088;43.238;23.110;2022-10-18T02:30:43;0.20;;;0.20;;
39362;SDS011;25088;43.238;23.110;2022-10-18T02:33:33;0.30;;;0.30;;
39362;SDS011;25088;43.238;23.110;2022-10-18T02:36:12;0.30;;;0.30;;
39362;SDS011;25088;43.238;23.110;2022-10-18T02:38:42;0.30;;;0.30;;
39362;SDS011;25088;43.238;23.110;2022-10-18T02:41:09;0.30;;;0.30;;
39362;SDS011;25088;43.238;23.110;2022-10-18T02:43:35;0.30;;;0.30;;
39362;SDS011;25088;43.238;23.110;2022-10-18T02:46:00;0.30;;;0.30;;
39362;SDS011;25088;43.238;23.110;2022-10-18T02:48:27;0.30;;;0.30;;
39362;SDS011;25088;43.238;23.110;2022-10-18T02:50:52;0.30;;;0.30;;
39362;SDS011;25088;43.238;23.110;2022-10-18T02:53:17;0.30;;;0.30;;
39362;SDS011;25088;43.238;23.110;2022-10-18T02:55:43;0.30;;;0.30;;
39362;SDS011;25088;43.238;23.110;2022-10-18T02:58:08;0.30;;;0.30;;
39362;SDS011;25088;43.238;23.110;2022-10-18T03:00:34;0.30;;;0.30;;
39362;SDS011;25088;43.238;23.110;2022-10-18T03:02:59;0.30;;;0.30;;
39362;SDS011;25088;43.238;23.110;2022-10-18T03:05:25;0.30;;;0.30;;
39362;SDS011;25088;43.238;23.110;2022-10-18T03:07:50;0.30;;;0.30;;
39362;SDS011;25088;43.238;23.110;2022-10-18T03:10:16;0.30;;;0.30;;
39362;SDS011;25088;43.238;23.110;2022-10-18T03:12:41;0.30;;;0.30;;
39362;SDS011;25088;43.238;23.110;2022-10-18T03:15:07;0.30;;;0.30;;
39362;SDS011;25088;43.238;23.110;2022-10-18T03:17:33;0.30;;;0.30;;
39362;SDS011;25088;43.238;23.110;2022-10-18T03:19:58;0.30;;;0.30;;
39362;SDS011;25088;43.238;23.110;2022-10-18T03:22:23;0.30;;;0.30;;
39362;SDS011;25088;43.238;23.110;2022-10-18T03:24:49;0.30;;;0.30;;
39362;SDS011;25088;43.238;23.110;2022-10-18T03:27:14;0.30;;;0.30;;
39362;SDS011;25088;43.238;23.110;2022-10-18T03:29:40;0.22;;;0.22;;
39362;SDS011;25088;43.238;23.110;2022-10-18T03:32:05;0.30;;;0.30;;
39362;SDS011;25088;43.238;23.110;2022-10-18T03:34:31;0.30;;;0.30;;
39362;SDS011;25088;43.238;23.110;2022-10-18T03:36:56;0.30;;;0.30;;
39362;SDS011;25088;43.238;23.110;2022-10-18T03:39:22;0.30;;;0.30;;
39362;SDS011;25088;43.238;23.110;2022-10-18T03:41:47;0.30;;;0.30;;
39362;SDS011;25088;43.238;23.110;2022-10-18T03:44:13;0.30;;;0.30;;
39362;SDS011;25088;43.238;23.110;2022-10-18T03:46:39;0.20;;;0.20;;
39362;SDS011;25088;43.238;23.110;2022-10-18T03:49:04;0.30;;;0.30;;
39362;SDS011;25088;43.238;23.110;2022-10-18T03:51:30;0.30;;;0.30;;
39362;SDS011;25088;43.238;23.110;2022-10-18T03:53:55;0.30;;;0.30;;
39362;SDS011;25088;43.238;23.110;2022-10-18T03:56:21;0.30;;;0.30;;
39362;SDS011;25088;43.238;23.110;2022-10-18T03:58:46;0.30;;;0.30;;
39362;SDS011;25088;43.238;23.110;2022-10-18T04:01:12;0.30;;;0.30;;
39362;SDS011;25088;43.238;23.110;2022-10-18T04:03:40;0.30;;;0.30;;
39362;SDS011;25088;43.238;23.110;2022-10-18T04:06:05;0.30;;;0.30;;
39362;SDS011;25088;43.238;23.110;2022-10-18T04:08:32;0.30;;;0.30;;
39362;SDS011;25088;43.238;23.110;2022-10-18T04:10:57;0.30;;;0.30;;
39362;SDS011;25088;43.238;23.110;2022-10-18T04:13:23;0.30;;;0.30;;
39362;SDS011;25088;43.238;23.110;2022-10-18T04:15:48;0.30;;;0.30;;
39362;SDS011;25088;43.238;23.110;2022-10-18T04:18:14;0.30;;;0.30;;
39362;SDS011;25088;43.238;23.110;2022-10-18T04:20:39;0.30;;;0.30;;
39362;SDS011;25088;43.238;23.110;2022-10-18T04:23:04;0.30;;;0.30;;
39362;SDS011;25088;43.238;23.110;2022-10-18T04:25:30;0.30;;;0.30;;
39362;SDS011;25088;43.238;23.110;2022-10-18T04:27:55;0.30;;;0.30;;
39362;SDS011;25088;43.238;23.110;2022-10-18T04:30:21;0.30;;;0.30;;
39362;SDS011;25088;43.238;23.110;2022-10-18T04:32:46;0.30;;;0.30;;
39362;SDS011;25088;43.238;23.110;2022-10-18T04:35:12;0.30;;;0.30;;
39362;SDS011;25088;43.238;23.110;2022-10-18T04:37:37;0.30;;;0.30;;
39362;SDS011;25088;43.238;23.110;2022-10-18T04:40:03;0.30;;;0.30;;
39362;SDS011;25088;43.238;23.110;2022-10-18T04:42:29;0.30;;;0.30;;
39362;SDS011;25088;43.238;23.110;2022-10-18T04:44:54;0.30;;;0.30;;
39362;SDS011;25088;43.238;23.110;2022-10-18T04:47:20;0.30;;;0.30;;
39362;SDS011;25088;43.238;23.110;2022-10-18T04:49:45;0.30;;;0.30;;
39362;SDS011;25088;43.238;23.110;2022-10-18T04:52:11;0.30;;;0.30;;
39362;SDS011;25088;43.238;23.110;2022-10-18T04:54:36;0.30;;;0.30;;
39362;SDS011;25088;43.238;23.110;2022-10-18T04:57:02;0.30;;;0.30;;
39362;SDS011;25088;43.238;23.110;2022-10-18T04:59:28;0.30;;;0.30;;
39362;SDS011;25088;43.238;23.110;2022-10-18T05:01:53;0.30;;;0.30;;
39362;SDS011;25088;43.238;23.110;2022-10-18T05:04:18;0.30;;;0.30;;
39362;SDS011;25088;43.238;23.110;2022-10-18T05:06:44;0.30;;;0.30;;
39362;SDS011;25088;43.238;23.110;2022-10-18T05:09:10;0.30;;;0.30;;
39362;SDS011;25088;43.238;23.110;2022-10-18T05:11:35;0.30;;;0.30;;
39362;SDS011;25088;43.238;23.110;2022-10-18T05:14:01;0.30;;;0.30;;
39362;SDS011;25088;43.238;23.110;2022-10-18T05:16:26;0.30;;;0.30;;
39362;SDS011;25088;43.238;23.110;2022-10-18T05:18:52;0.30;;;0.30;;
39362;SDS011;25088;43.238;23.110;2022-10-18T05:21:18;0.30;;;0.30;;
39362;SDS011;25088;43.238;23.110;2022-10-18T05:23:43;0.30;;;0.30;;
39362;SDS011;25088;43.238;23.110;2022-10-18T05:26:09;0.30;;;0.30;;
39362;SDS011;25088;43.238;23.110;2022-10-18T05:28:34;0.20;;;0.20;;
39362;SDS011;25088;43.238;23.110;2022-10-18T05:31:03;0.20;;;0.20;;
39362;SDS011;25088;43.238;23.110;2022-10-18T05:33:30;0.20;;;0.20;;
39362;SDS011;25088;43.238;23.110;2022-10-18T05:35:55;0.20;;;0.20;;
39362;SDS011;25088;43.238;23.110;2022-10-18T05:38:21;0.20;;;0.20;;
39362;SDS011;25088;43.238;23.110;2022-10-18T05:40:47;0.20;;;0.20;;
39362;SDS011;25088;43.238;23.110;2022-10-18T05:43:13;0.20;;;0.20;;
39362;SDS011;25088;43.238;23.110;2022-10-18T05:45:38;0.20;;;0.20;;
39362;SDS011;25088;43.238;23.110;2022-10-18T05:48:04;0.20;;;0.20;;
39362;SDS011;25088;43.238;23.110;2022-10-18T05:50:31;0.20;;;0.20;;
39362;SDS011;25088;43.238;23.110;2022-10-18T05:52:57;0.20;;;0.20;;
39362;SDS011;25088;43.238;23.110;2022-10-18T05:55:23;0.20;;;0.20;;
39362;SDS011;25088;43.238;23.110;2022-10-18T05:57:49;0.20;;;0.20;;
39362;SDS011;25088;43.238;23.110;2022-10-18T06:00:15;0.10;;;0.10;;
39362;SDS011;25088;43.238;23.110;2022-10-18T06:02:41;0.20;;;0.20;;
39362;SDS011;25088;43.238;23.110;2022-10-18T06:05:06;0.10;;;0.10;;
39362;SDS011;25088;43.238;23.110;2022-10-18T06:07:32;0.10;;;0.10;;
39362;SDS011;25088;43.238;23.110;2022-10-18T06:09:57;0.10;;;0.10;;
39362;SDS011;25088;43.238;23.110;2022-10-18T06:12:23;0.10;;;0.10;;
39362;SDS011;25088;43.238;23.110;2022-10-18T06:14:48;0.10;;;0.10;;
39362;SDS011;25088;43.238;23.110;2022-10-18T06:17:14;0.10;;;0.10;;
39362;SDS011;25088;43.238;23.110;2022-10-18T06:19:39;0.10;;;0.10;;
39362;SDS011;25088;43.238;23.110;2022-10-18T06:22:07;0.10;;;0.10;;
39362;SDS011;25088;43.238;23.110;2022-10-18T06:24:32;0.10;;;0.10;;
39362;SDS011;25088;43.238;23.110;2022-10-18T06:26:58;0.10;;;0.10;;
39362;SDS011;25088;43.238;23.110;2022-10-18T06:29:23;0.10;;;0.10;;
39362;SDS011;25088;43.238;23.110;2022-10-18T06:31:49;0.10;;;0.10;;
39362;SDS011;25088;43.238;23.110;2022-10-18T06:34:14;0.10;;;0.10;;
39362;SDS011;25088;43.238;23.110;2022-10-18T06:36:39;0.10;;;0.10;;
39362;SDS011;25088;43.238;23.110;2022-10-18T06:39:05;0.10;;;0.10;;
39362;SDS011;25088;43.238;23.110;2022-10-18T06:41:30;0.10;;;0.10;;
39362;SDS011;25088;43.238;23.110;2022-10-18T06:43:56;0.10;;;0.10;;
39362;SDS011;25088;43.238;23.110;2022-10-18T06:46:23;0.10;;;0.10;;
39362;SDS011;25088;43.238;23.110;2022-10-18T06:48:50;0.00;;;0.00;;
39362;SDS011;25088;43.238;23.110;2022-10-18T06:51:15;0.10;;;0.10;;
39362;SDS011;25088;43.238;23.110;2022-10-18T06:53:42;0.08;;;0.08;;
39362;SDS011;25088;43.238;23.110;2022-10-18T06:56:09;0.10;;;0.10;;
39362;SDS011;25088;43.238;23.110;2022-10-18T06:58:35;0.08;;;0.08;;
39362;SDS011;25088;43.238;23.110;2022-10-18T07:01:07;0.10;;;0.10;;
39362;SDS011;25088;43.238;23.110;2022-10-18T07:03:34;0.10;;;0.10;;
39362;SDS011;25088;43.238;23.110;2022-10-18T07:06:01;0.00;;;0.00;;
39362;SDS011;25088;43.238;23.110;2022-10-18T07:08:26;0.10;;;0.10;;
39362;SDS011;25088;43.238;23.110;2022-10-18T07:10:52;0.00;;;0.00;;
39362;SDS011;25088;43.238;23.110;2022-10-18T07:13:18;0.10;;;0.10;;
39362;SDS011;25088;43.238;23.110;2022-10-18T07:15:43;0.00;;;0.00;;
39362;SDS011;25088;43.238;23.110;2022-10-18T07:18:09;0.00;;;0.00;;
39362;SDS011;25088;43.238;23.110;2022-10-18T07:20:35;0.00;;;0.00;;
39362;SDS011;25088;43.238;23.110;2022-10-18T07:23:00;0.00;;;0.00;;
39362;SDS011;25088;43.238;23.110;2022-10-18T07:25:26;0.00;;;0.00;;
39362;SDS011;25088;43.238;23.110;2022-10-18T07:27:51;0.00;;;0.00;;
39362;SDS011;25088;43.238;23.110;2022-10-18T07:30:17;0.00;;;0.00;;
39362;SDS011;25088;43.238;23.110;2022-10-18T07:32:42;0.00;;;0.00;;
39362;SDS011;25088;43.238;23.110;2022-10-18T07:35:08;0.00;;;0.00;;
39362;SDS011;25088;43.238;23.110;2022-10-18T07:37:33;0.00;;;0.00;;
39362;SDS011;25088;43.238;23.110;2022-10-18T07:39:59;0.00;;;0.00;;
39362;SDS011;25088;43.238;23.110;2022-10-18T07:42:24;0.00;;;0.00;;
39362;SDS011;25088;43.238;23.110;2022-10-18T07:44:50;0.00;;;0.00;;
39362;SDS011;25088;43.238;23.110;2022-10-18T07:47:15;0.00;;;0.00;;
39362;SDS011;25088;43.238;23.110;2022-10-18T07:49:41;0.00;;;0.00;;
39362;SDS011;25088;43.238;23.110;2022-10-18T07:52:06;0.00;;;0.00;;
39362;SDS011;25088;43.238;23.110;2022-10-18T07:54:31;0.00;;;0.00;;
39362;SDS011;25088;43.238;23.110;2022-10-18T07:56:57;0.00;;;0.00;;
39362;SDS011;25088;43.238;23.110;2022-10-18T07:59:22;0.00;;;0.00;;
39362;SDS011;25088;43.238;23.110;2022-10-18T08:01:48;0.00;;;0.00;;
39362;SDS011;25088;43.238;23.110;2022-10-18T08:04:13;0.00;;;0.00;;
39362;SDS011;25088;43.238;23.110;2022-10-18T08:06:40;0.00;;;0.00;;
39362;SDS011;25088;43.238;23.110;2022-10-18T08:09:06;0.00;;;0.00;;
39362;SDS011;25088;43.238;23.110;2022-10-18T08:11:31;0.00;;;0.00;;
39362;SDS011;25088;43.238;23.110;2022-10-18T08:13:57;0.00;;;0.00;;
39362;SDS011;25088;43.238;23.110;2022-10-18T08:16:23;0.00;;;0.00;;
39362;SDS011;25088;43.238;23.110;2022-10-18T08:18:51;0.00;;;0.00;;
39362;SDS011;25088;43.238;23.110;2022-10-18T08:21:17;0.00;;;0.00;;
39362;SDS011;25088;43.238;23.110;2022-10-18T08:23:44;0.00;;;0.00;;
39362;SDS011;25088;43.238;23.110;2022-10-18T08:26:11;0.00;;;0.00;;
39362;SDS011;25088;43.238;23.110;2022-10-18T08:28:39;0.00;;;0.00;;
39362;SDS011;25088;43.238;23.110;2022-10-18T08:31:06;0.00;;;0.00;;
39362;SDS011;25088;43.238;23.110;2022-10-18T08:33:35;0.00;;;0.00;;
39362;SDS011;25088;43.238;23.110;2022-10-18T08:36:03;0.00;;;0.00;;
39362;SDS011;25088;43.238;23.110;2022-10-18T08:38:30;0.00;;;0.00;;
39362;SDS011;25088;43.238;23.110;2022-10-18T08:44:06;0.00;;;0.00;;
39362;SDS011;25088;43.238;23.110;2022-10-18T08:46:36;0.00;;;0.00;;
39362;SDS011;25088;43.238;23.110;2022-10-18T08:49:04;0.00;;;0.00;;
39362;SDS011;25088;43.238;23.110;2022-10-18T08:51:36;0.00;;;0.00;;
39362;SDS011;25088;43.238;23.110;2022-10-18T08:56:36;0.00;;;0.00;;
39362;SDS011;25088;43.238;23.110;2022-10-18T08:59:11;0.00;;;0.00;;
39362;SDS011;25088;43.238;23.110;2022-10-18T09:18:15;0.00;;;0.00;;
39362;SDS011;25088;43.238;23.110;2022-10-18T09:20:54;0.00;;;0.00;;
39362;SDS011;25088;43.238;23.110;2022-10-18T09:26:17;0.00;;;0.00;;
39362;SDS011;25088;43.238;23.110;2022-10-18T09:34:46;0.00;;;0.00;;
39362;SDS011;25088;43.238;23.110;2022-10-18T09:37:13;0.00;;;0.00;;
39362;SDS011;25088;43.238;23.110;2022-10-18T09:39:42;0.00;;;0.00;;
39362;SDS011;25088;43.238;23.110;2022-10-18T09:42:28;0.00;;;0.00;;
39362;SDS011;25088;43.238;23.110;2022-10-18T09:48:00;0.00;;;0.00;;
39362;SDS011;25088;43.238;23.110;2022-10-18T09:50:38;0.00;;;0.00;;
39362;SDS011;25088;43.238;23.110;2022-10-18T09:53:24;0.00;;;0.00;;
39362;SDS011;25088;43.238;23.110;2022-10-18T09:56:01;0.00;;;0.00;;
39362;SDS011;25088;43.238;23.110;2022-10-18T09:58:48;0.00;;;0.00;;
39362;SDS011;25088;43.238;23.110;2022-10-18T10:01:17;0.00;;;0.00;;
39362;SDS011;25088;43.238;23.110;2022-10-18T10:03:46;0.00;;;0.00;;
39362;SDS011;25088;43.238;23.110;2022-10-18T10:08:42;0.00;;;0.00;;
39362;SDS011;25088;43.238;23.110;2022-10-18T10:14:05;0.05;;;0.05;;
39362;SDS011;25088;43.238;23.110;2022-10-18T10:16:55;0.00;;;0.00;;
39362;SDS011;25088;43.238;23.110;2022-10-18T10:19:34;0.00;;;0.00;;
39362;SDS011;25088;43.238;23.110;2022-10-18T10:22:04;0.00;;;0.00;;
39362;SDS011;25088;43.238;23.110;2022-10-18T10:32:11;0.00;;;0.00;;
39362;SDS011;25088;43.238;23.110;2022-10-18T10:34:38;0.00;;;0.00;;
39362;SDS011;25088;43.238;23.110;2022-10-18T10:37:20;0.00;;;0.00;;
39362;SDS011;25088;43.238;23.110;2022-10-18T10:45:55;0.00;;;0.00;;
39362;SDS011;25088;43.238;23.110;2022-10-18T10:48:23;0.00;;;0.00;;
39362;SDS011;25088;43.238;23.110;2022-10-18T10:56:19;0.00;;;0.00;;
39362;SDS011;25088;43.238;23.110;2022-10-18T10:59:12;0.00;;;0.00;;
39362;SDS011;25088;43.238;23.110;2022-10-18T11:14:43;0.00;;;0.00;;
39362;SDS011;25088;43.238;23.110;2022-10-18T11:17:21;0.00;;;0.00;;
39362;SDS011;25088;43.238;23.110;2022-10-18T11:23:00;0.00;;;0.00;;
39362;SDS011;25088;43.238;23.110;2022-10-18T11:25:53;0.00;;;0.00;;
39362;SDS011;25088;43.238;23.110;2022-10-18T11:33:57;0.00;;;0.00;;
39362;SDS011;25088;43.238;23.110;2022-10-18T11:50:39;0.00;;;0.00;;
39362;SDS011;25088;43.238;23.110;2022-10-18T11:53:36;0.00;;;0.00;;
39362;SDS011;25088;43.238;23.110;2022-10-18T12:04:46;0.00;;;0.00;;
39362;SDS011;25088;43.238;23.110;2022-10-18T12:07:16;0.00;;;0.00;;
39362;SDS011;25088;43.238;23.110;2022-10-18T12:09:45;0.00;;;0.00;;
39362;SDS011;25088;43.238;23.110;2022-10-18T12:14:56;0.00;;;0.00;;
39362;SDS011;25088;43.238;23.110;2022-10-18T12:17:54;0.00;;;0.00;;
39362;SDS011;25088;43.238;23.110;2022-10-18T12:20:28;0.00;;;0.00;;
39362;SDS011;25088;43.238;23.110;2022-10-18T12:23:10;0.00;;;0.00;;
39362;SDS011;25088;43.238;23.110;2022-10-18T12:26:02;0.00;;;0.00;;
39362;SDS011;25088;43.238;23.110;2022-10-18T12:33:33;0.00;;;0.00;;
39362;SDS011;25088;43.238;23.110;2022-10-18T12:38:43;0.00;;;0.00;;
39362;SDS011;25088;43.238;23.110;2022-10-18T12:41:31;0.00;;;0.00;;
39362;SDS011;25088;43.238;23.110;2022-10-18T12:46:46;0.00;;;0.00;;
39362;SDS011;25088;43.238;23.110;2022-10-18T12:49:25;0.00;;;0.00;;
39362;SDS011;25088;43.238;23.110;2022-10-18T12:52:05;0.00;;;0.00;;
39362;SDS011;25088;43.238;23.110;2022-10-18T12:54:50;0.00;;;0.00;;
39362;SDS011;25088;43.238;23.110;2022-10-18T13:19:22;0.00;;;0.00;;
39362;SDS011;25088;43.238;23.110;2022-10-18T13:22:22;0.00;;;0.00;;
39362;SDS011;25088;43.238;23.110;2022-10-18T13:25:20;0.00;;;0.00;;
39362;SDS011;25088;43.238;23.110;2022-10-18T13:30:59;0.00;;;0.00;;
39362;SDS011;25088;43.238;23.110;2022-10-18T13:33:36;0.00;;;0.00;;
39362;SDS011;25088;43.238;23.110;2022-10-18T13:38:44;0.00;;;0.00;;
39362;SDS011;25088;43.238;23.110;2022-10-18T13:41:26;0.00;;;0.00;;
39362;SDS011;25088;43.238;23.110;2022-10-18T13:43:58;0.00;;;0.00;;
39362;SDS011;25088;43.238;23.110;2022-10-18T13:51:55;0.00;;;0.00;;
39362;SDS011;25088;43.238;23.110;2022-10-18T14:11:04;0.00;;;0.00;;
39362;SDS011;25088;43.238;23.110;2022-10-18T14:13:42;0.00;;;0.00;;
39362;SDS011;25088;43.238;23.110;2022-10-18T14:16:28;0.00;;;0.00;;
39362;SDS011;25088;43.238;23.110;2022-10-18T14:19:06;0.00;;;0.00;;
39362;SDS011;25088;43.238;23.110;2022-10-18T14:21:49;0.00;;;0.00;;
39362;SDS011;25088;43.238;23.110;2022-10-18T14:24:20;0.00;;;0.00;;
39362;SDS011;25088;43.238;23.110;2022-10-18T14:27:08;0.00;;;0.00;;
39362;SDS011;25088;43.238;23.110;2022-10-18T14:29:44;0.00;;;0.00;;
39362;SDS011;25088;43.238;23.110;2022-10-18T14:32:13;0.00;;;0.00;;
39362;SDS011;25088;43.238;23.110;2022-10-18T14:34:52;0.00;;;0.00;;
39362;SDS011;25088;43.238;23.110;2022-10-18T14:37:28;0.00;;;0.00;;
39362;SDS011;25088;43.238;23.110;2022-10-18T14:39:57;0.00;;;0.00;;
39362;SDS011;25088;43.238;23.110;2022-10-18T14:42:24;0.00;;;0.00;;
39362;SDS011;25088;43.238;23.110;2022-10-18T14:44:51;0.00;;;0.00;;
39362;SDS011;25088;43.238;23.110;2022-10-18T14:47:24;0.00;;;0.00;;
39362;SDS011;25088;43.238;23.110;2022-10-18T14:49:53;0.00;;;0.00;;
39362;SDS011;25088;43.238;23.110;2022-10-18T14:52:31;0.00;;;0.00;;
39362;SDS011;25088;43.238;23.110;2022-10-18T14:54:57;0.00;;;0.00;;
39362;SDS011;25088;43.238;23.110;2022-10-18T14:57:25;0.00;;;0.00;;
39362;SDS011;25088;43.238;23.110;2022-10-18T14:59:58;0.00;;;0.00;;
39362;SDS011;25088;43.238;23.110;2022-10-18T15:02:27;0.00;;;0.00;;
39362;SDS011;25088;43.238;23.110;2022-10-18T15:04:56;0.00;;;0.00;;
39362;SDS011;25088;43.238;23.110;2022-10-18T15:07:33;0.00;;;0.00;;
39362;SDS011;25088;43.238;23.110;2022-10-18T15:10:00;0.00;;;0.00;;
39362;SDS011;25088;43.238;23.110;2022-10-18T15:12:28;0.00;;;0.00;;
39362;SDS011;25088;43.238;23.110;2022-10-18T15:14:55;0.00;;;0.00;;
39362;SDS011;25088;43.238;23.110;2022-10-18T15:17:25;0.00;;;0.00;;
39362;SDS011;25088;43.238;23.110;2022-10-18T15:19:57;0.00;;;0.00;;
39362;SDS011;25088;43.238;23.110;2022-10-18T15:22:29;0.00;;;0.00;;
39362;SDS011;25088;43.238;23.110;2022-10-18T15:27:38;0.05;;;0.05;;
39362;SDS011;25088;43.238;23.110;2022-10-18T15:30:13;0.00;;;0.00;;
39362;SDS011;25088;43.238;23.110;2022-10-18T15:32:46;0.00;;;0.00;;
39362;SDS011;25088;43.238;23.110;2022-10-18T15:35:26;0.10;;;0.10;;
39362;SDS011;25088;43.238;23.110;2022-10-18T15:37:55;0.10;;;0.10;;
39362;SDS011;25088;43.238;23.110;2022-10-18T15:42:48;0.00;;;0.00;;
39362;SDS011;25088;43.238;23.110;2022-10-18T15:48:13;0.10;;;0.10;;
39362;SDS011;25088;43.238;23.110;2022-10-18T15:51:01;0.10;;;0.10;;
39362;SDS011;25088;43.238;23.110;2022-10-18T15:56:09;0.10;;;0.10;;
39362;SDS011;25088;43.238;23.110;2022-10-18T15:58:49;0.10;;;0.10;;
39362;SDS011;25088;43.238;23.110;2022-10-18T16:01:22;0.10;;;0.10;;
39362;SDS011;25088;43.238;23.110;2022-10-18T16:03:53;0.10;;;0.10;;
39362;SDS011;25088;43.238;23.110;2022-10-18T16:06:19;0.10;;;0.10;;
39362;SDS011;25088;43.238;23.110;2022-10-18T16:08:45;0.10;;;0.10;;
39362;SDS011;25088;43.238;23.110;2022-10-18T16:11:15;0.10;;;0.10;;
39362;SDS011;25088;43.238;23.110;2022-10-18T16:13:43;0.10;;;0.10;;
39362;SDS011;25088;43.238;23.110;2022-10-18T16:16:10;0.10;;;0.10;;
39362;SDS011;25088;43.238;23.110;2022-10-18T16:18:39;0.10;;;0.10;;
39362;SDS011;25088;43.238;23.110;2022-10-18T16:21:05;0.10;;;0.10;;
39362;SDS011;25088;43.238;23.110;2022-10-18T16:23:30;0.10;;;0.10;;
39362;SDS011;25088;43.238;23.110;2022-10-18T16:25:56;0.10;;;0.10;;
39362;SDS011;25088;43.238;23.110;2022-10-18T16:28:22;0.10;;;0.10;;
39362;SDS011;25088;43.238;23.110;2022-10-18T16:33:17;0.10;;;0.10;;
39362;SDS011;25088;43.238;23.110;2022-10-18T16:35:43;0.10;;;0.10;;
39362;SDS011;25088;43.238;23.110;2022-10-18T16:38:26;0.10;;;0.10;;
39362;SDS011;25088;43.238;23.110;2022-10-18T16:40:52;0.10;;;0.10;;
39362;SDS011;25088;43.238;23.110;2022-10-18T16:43:18;0.10;;;0.10;;
39362;SDS011;25088;43.238;23.110;2022-10-18T16:45:44;0.10;;;0.10;;
39362;SDS011;25088;43.238;23.110;2022-10-18T16:48:14;0.10;;;0.10;;
39362;SDS011;25088;43.238;23.110;2022-10-18T16:50:42;0.10;;;0.10;;
39362;SDS011;25088;43.238;23.110;2022-10-18T16:53:07;0.10;;;0.10;;
39362;SDS011;25088;43.238;23.110;2022-10-18T16:55:33;0.10;;;0.10;;
39362;SDS011;25088;43.238;23.110;2022-10-18T16:57:59;0.10;;;0.10;;
39362;SDS011;25088;43.238;23.110;2022-10-18T17:00:25;0.10;;;0.10;;
39362;SDS011;25088;43.238;23.110;2022-10-18T17:02:50;0.10;;;0.10;;
39362;SDS011;25088;43.238;23.110;2022-10-18T17:05:16;0.10;;;0.10;;
39362;SDS011;25088;43.238;23.110;2022-10-18T17:07:43;0.10;;;0.10;;
39362;SDS011;25088;43.238;23.110;2022-10-18T17:10:13;0.10;;;0.10;;
39362;SDS011;25088;43.238;23.110;2022-10-18T17:12:40;0.10;;;0.10;;
39362;SDS011;25088;43.238;23.110;2022-10-18T17:15:06;0.10;;;0.10;;
39362;SDS011;25088;43.238;23.110;2022-10-18T17:17:32;0.10;;;0.10;;
39362;SDS011;25088;43.238;23.110;2022-10-18T17:19:57;0.10;;;0.10;;
39362;SDS011;25088;43.238;23.110;2022-10-18T17:22:23;0.10;;;0.10;;
39362;SDS011;25088;43.238;23.110;2022-10-18T17:24:48;0.10;;;0.10;;
39362;SDS011;25088;43.238;23.110;2022-10-18T17:27:14;0.10;;;0.10;;
39362;SDS011;25088;43.238;23.110;2022-10-18T17:29:41;0.10;;;0.10;;
39362;SDS011;25088;43.238;23.110;2022-10-18T17:32:07;0.10;;;0.10;;
39362;SDS011;25088;43.238;23.110;2022-10-18T17:34:32;0.10;;;0.10;;
39362;SDS011;25088;43.238;23.110;2022-10-18T17:37:00;0.10;;;0.10;;
39362;SDS011;25088;43.238;23.110;2022-10-18T17:39:26;0.10;;;0.10;;
39362;SDS011;25088;43.238;23.110;2022-10-18T17:41:52;0.10;;;0.10;;
39362;SDS011;25088;43.238;23.110;2022-10-18T17:44:19;0.10;;;0.10;;
39362;SDS011;25088;43.238;23.110;2022-10-18T17:46:45;0.10;;;0.10;;
39362;SDS011;25088;43.238;23.110;2022-10-18T17:49:10;0.10;;;0.10;;
39362;SDS011;25088;43.238;23.110;2022-10-18T17:51:38;0.10;;;0.10;;
39362;SDS011;25088;43.238;23.110;2022-10-18T17:54:05;0.10;;;0.10;;
39362;SDS011;25088;43.238;23.110;2022-10-18T17:56:31;0.10;;;0.10;;
39362;SDS011;25088;43.238;23.110;2022-10-18T17:58:57;0.10;;;0.10;;
39362;SDS011;25088;43.238;23.110;2022-10-18T18:01:24;0.10;;;0.10;;
39362;SDS011;25088;43.238;23.110;2022-10-18T18:03:54;0.10;;;0.10;;
39362;SDS011;25088;43.238;23.110;2022-10-18T18:06:22;0.20;;;0.20;;
39362;SDS011;25088;43.238;23.110;2022-10-18T18:08:55;0.10;;;0.10;;